Time;durP1;ratioP1;P1;durP2;ratioP2;P2;SDS_P1;SDS_P2;PMS_P1;PMS_P2;Temp;Humidity;BMP_temperature;BMP_pressure;BME280_temperature;BME280_humidity;BME280_pressure;Samples;Min_cycle;Max_cycle;Signal;HPM_P1;HPM_P2
2022/11/20 00:01:45;;;;;;;4.03;2.78;;;;;;;4.49;70.98;100668.78;5154358;28;20076;-85
2022/11/20 00:04:15;;;;;;;1.77;1.65;;;;;;;4.52;71.22;100662.69;5173451;28;20053;-85
2022/11/20 00:06:46;;;;;;;2.25;2.05;;;;;;;4.52;71.29;100663.59;5168352;28;20137;-83
2022/11/20 00:09:17;;;;;;;2.13;1.85;;;;;;;4.58;70.57;100667.91;5164896;28;20036;-85
2022/11/20 00:11:47;;;;;;;1.58;1.48;;;;;;;4.66;71.27;100671.34;5129743;28;20416;-85
2022/11/20 00:14:17;;;;;;;2.78;2.67;;;;;;;4.62;70.44;100674.81;5146892;28;20034;-85
2022/11/20 00:16:48;;;;;;;3.88;2.20;;;;;;;4.61;70.71;100673.06;5133381;28;20060;-85
2022/11/20 00:19:18;;;;;;;0.40;0.40;;;;;;;4.60;71.04;100673.09;5160070;28;20053;-84
2022/11/20 00:21:51;;;;;;;1.20;1.10;;;;;;;4.63;71.06;100671.34;5174353;28;20053;-85
2022/11/20 00:24:21;;;;;;;5.68;1.42;;;;;;;4.60;70.48;100676.53;5149694;28;20076;-85
2022/11/20 00:26:52;;;;;;;1.42;1.40;;;;;;;4.63;70.75;100666.16;5181339;28;20041;-84
2022/11/20 00:29:22;;;;;;;0.95;0.95;;;;;;;4.65;70.66;100655.72;5164563;28;20049;-85
2022/11/20 00:31:53;;;;;;;3.25;2.95;;;;;;;4.65;70.53;100659.22;5143565;28;20041;-84
2022/11/20 00:34:23;;;;;;;2.30;2.20;;;;;;;4.67;70.92;100657.44;5150379;28;20111;-84
2022/11/20 00:36:53;;;;;;;1.13;1.13;;;;;;;4.68;70.57;100659.19;5157707;28;20149;-85
2022/11/20 00:39:24;;;;;;;2.20;2.10;;;;;;;4.68;70.65;100651.38;5143960;28;20781;-84
2022/11/20 00:41:54;;;;;;;1.20;1.20;;;;;;;4.66;71.07;100649.66;5166953;28;20049;-84
2022/11/20 00:44:25;;;;;;;0.85;0.85;;;;;;;4.69;71.05;100655.72;5162179;28;20162;-85
2022/11/20 00:46:55;;;;;;;1.40;1.30;;;;;;;4.72;70.92;100660.03;5202568;28;20034;-84
2022/11/20 00:49:26;;;;;;;4.13;2.47;;;;;;;4.72;71.17;100655.72;5183829;28;20026;-84
2022/11/20 00:51:56;;;;;;;1.33;1.23;;;;;;;4.67;71.23;100647.06;5200731;28;20065;-85
2022/11/20 00:54:26;;;;;;;0.98;0.98;;;;;;;4.78;70.76;100648.75;5175198;28;20014;-85
2022/11/20 00:56:57;;;;;;;2.55;2.08;;;;;;;4.73;71.23;100646.16;5169600;28;20087;-85
2022/11/20 00:59:27;;;;;;;0.63;0.63;;;;;;;4.74;70.71;100650.50;5143682;28;20368;-84
2022/11/20 01:01:58;;;;;;;2.33;2.22;;;;;;;4.76;71.31;100646.16;5162532;28;20431;-83
2022/11/20 01:04:28;;;;;;;1.08;1.08;;;;;;;4.78;70.41;100654.84;5187870;28;20679;-85
2022/11/20 01:06:59;;;;;;;1.58;1.48;;;;;;;4.78;70.93;100649.63;5187510;28;20053;-83
2022/11/20 01:09:29;;;;;;;1.33;1.02;;;;;;;4.78;71.21;100644.44;5185622;28;20114;-84
2022/11/20 01:12:00;;;;;;;2.22;2.03;;;;;;;4.76;70.57;100655.69;5147753;28;20042;-86
2022/11/20 01:14:30;;;;;;;1.85;1.75;;;;;;;4.77;71.09;100647.03;5147048;28;20065;-85
2022/11/20 01:17:01;;;;;;;1.13;1.13;;;;;;;4.71;71.13;100643.59;5154308;28;20046;-84
2022/11/20 01:19:31;;;;;;;2.50;1.52;;;;;;;4.76;71.02;100642.69;5165234;28;20034;-85
2022/11/20 01:22:02;;;;;;;0.95;0.95;;;;;;;4.82;70.85;100645.28;5167089;28;20049;-87
2022/11/20 01:24:32;;;;;;;1.40;1.35;;;;;;;4.80;70.84;100644.41;5164168;28;20105;-85
2022/11/20 01:27:03;;;;;;;1.27;1.17;;;;;;;4.80;70.70;100631.41;5164261;28;20045;-85
2022/11/20 01:29:33;;;;;;;2.67;0.85;;;;;;;4.78;71.31;100633.16;5166827;28;20092;-84
2022/11/20 01:32:04;;;;;;;2.25;1.33;;;;;;;4.73;70.80;100626.25;5169389;28;20041;-85
2022/11/20 01:34:34;;;;;;;2.08;1.98;;;;;;;4.73;71.22;100622.78;5188520;28;20038;-85
2022/11/20 01:37:05;;;;;;;1.85;1.77;;;;;;;4.76;70.91;100625.38;5168053;28;20115;-86
2022/11/20 01:39:35;;;;;;;0.68;0.68;;;;;;;4.71;71.15;100612.41;5164528;28;20032;-85
2022/11/20 01:44:59;;;;;;;1.35;1.35;;;;;;;4.78;70.76;100612.34;5158824;28;20030;-84
2022/11/20 01:47:40;;;;;;;1.05;1.05;;;;;;;4.82;70.86;100619.28;5160402;28;20088;-85
2022/11/20 01:50:26;;;;;;;1.65;1.60;;;;;;;4.78;70.75;100617.56;5168527;28;20315;-85
2022/11/20 01:53:02;;;;;;;1.13;1.13;;;;;;;4.76;71.60;100620.19;5169984;28;20046;-84
2022/11/20 01:55:36;;;;;;;1.20;1.10;;;;;;;4.77;71.39;100618.44;5168921;28;20030;-84
2022/11/20 01:58:08;;;;;;;1.25;1.25;;;;;;;4.78;70.92;100609.75;5151802;28;20053;-85
2022/11/20 02:00:40;;;;;;;6.38;3.08;;;;;;;4.84;70.64;100601.91;5176362;28;20033;-85
2022/11/20 02:03:16;;;;;;;2.30;1.30;;;;;;;4.84;70.71;100613.19;5186861;28;20073;-84
2022/11/20 02:06:06;;;;;;;1.70;1.60;;;;;;;4.91;70.43;100603.63;5198119;28;20048;-84
2022/11/20 02:08:38;;;;;;;2.15;2.05;;;;;;;4.81;71.28;100609.75;5157089;28;20090;-83
2022/11/20 02:11:09;;;;;;;1.23;1.23;;;;;;;4.79;70.93;100606.28;5164017;28;20242;-84
2022/11/20 02:13:43;;;;;;;6.72;2.70;;;;;;;4.79;71.17;100614.97;5174146;28;20018;-83
2022/11/20 02:16:24;;;;;;;1.13;1.10;;;;;;;4.77;70.58;100605.44;5171295;28;20125;-84
2022/11/20 02:18:56;;;;;;;2.28;2.17;;;;;;;4.82;70.63;100607.13;5187316;28;20026;-83
2022/11/20 02:21:45;;;;;;;2.15;2.05;;;;;;;4.79;70.89;100603.69;5201036;28;20357;-83
2022/11/20 02:24:18;;;;;;;1.50;1.27;;;;;;;4.83;70.77;100611.47;5202517;28;20021;-84
2022/11/20 02:27:02;;;;;;;1.02;1.02;;;;;;;4.85;71.01;100598.44;5166784;28;20039;-83
2022/11/20 02:29:38;;;;;;;1.63;1.58;;;;;;;4.84;71.17;100604.53;5164163;28;20026;-84
2022/11/20 02:32:38;;;;;;;0.60;0.60;;;;;;;4.89;70.81;100603.63;5189901;28;20042;-84
2022/11/20 02:35:30;;;;;;;1.50;1.40;;;;;;;4.86;70.42;100600.19;5150522;28;20038;-84
2022/11/20 02:38:02;;;;;;;31.08;2.88;;;;;;;4.85;70.65;100603.66;5186220;28;20106;-84
2022/11/20 02:40:32;;;;;;;1.60;1.50;;;;;;;4.88;71.04;100601.03;5187561;28;20038;-84
2022/11/20 02:43:03;;;;;;;3.83;1.25;;;;;;;4.86;71.46;100600.19;5172703;28;20053;-83
2022/11/20 02:45:33;;;;;;;1.08;1.02;;;;;;;4.87;70.81;100595.00;5173589;28;20014;-84
2022/11/20 02:48:06;;;;;;;0.73;0.73;;;;;;;4.86;70.80;100601.06;5170192;28;20052;-83
2022/11/20 02:50:38;;;;;;;1.70;1.50;;;;;;;4.89;70.78;100605.38;5159079;28;20046;-84
2022/11/20 02:53:09;;;;;;;2.37;2.17;;;;;;;4.91;70.73;100601.03;5190302;28;20508;-83
2022/11/20 02:55:39;;;;;;;1.65;1.55;;;;;;;4.92;71.29;100605.34;5160534;28;20053;-84
2022/11/20 02:58:10;;;;;;;1.45;1.35;;;;;;;4.94;70.54;100608.81;5189986;28;20031;-83
2022/11/20 03:00:40;;;;;;;1.13;1.13;;;;;;;4.92;70.76;100615.75;5172858;28;20046;-84
2022/11/20 03:03:11;;;;;;;1.13;1.13;;;;;;;4.98;71.00;100604.44;5181956;28;20324;-84
2022/11/20 03:05:41;;;;;;;1.08;0.93;;;;;;;4.91;70.85;100608.84;5142939;28;20462;-84
2022/11/20 03:08:12;;;;;;;1.15;1.05;;;;;;;4.88;70.90;100598.44;5170000;28;20044;-84
2022/11/20 03:10:42;;;;;;;2.10;1.95;;;;;;;4.94;70.47;100603.59;5150353;28;20121;-84
2022/11/20 03:13:13;;;;;;;1.42;1.42;;;;;;;4.92;70.92;100610.53;5167254;28;20046;-85
2022/11/20 03:15:43;;;;;;;1.15;1.10;;;;;;;4.88;70.90;100611.44;5151632;28;20925;-85
2022/11/20 03:18:14;;;;;;;1.38;1.27;;;;;;;4.91;71.26;100606.25;5133768;28;20050;-83
2022/11/20 03:20:45;;;;;;;1.42;1.40;;;;;;;4.92;71.08;100602.75;5145454;28;20073;-84
2022/11/20 03:23:15;;;;;;;2.80;2.28;;;;;;;4.92;70.79;100600.16;5166782;28;20073;-85
2022/11/20 03:25:46;;;;;;;1.00;1.00;;;;;;;4.96;70.76;100594.06;5169004;28;20057;-84
2022/11/20 03:28:16;;;;;;;1.15;1.15;;;;;;;4.95;70.90;100587.13;5168071;28;20153;-85
2022/11/20 03:30:47;;;;;;;3.13;2.85;;;;;;;4.93;70.85;100591.47;5179600;28;20038;-85
2022/11/20 03:33:18;;;;;;;1.63;1.52;;;;;;;4.92;71.01;100589.75;5148482;28;20317;-82
2022/11/20 03:35:48;;;;;;;0.60;0.60;;;;;;;4.94;70.94;100588.00;5156915;28;20033;-85
2022/11/20 03:38:18;;;;;;;3.92;2.78;;;;;;;4.91;70.86;100580.25;5168392;28;20463;-85
2022/11/20 03:40:49;;;;;;;1.17;1.17;;;;;;;4.96;70.67;100586.25;5165163;28;20073;-84
2022/11/20 03:43:19;;;;;;;2.63;1.90;;;;;;;4.89;70.64;100589.78;5153348;28;20077;-84
2022/11/20 03:45:50;;;;;;;1.25;1.25;;;;;;;4.99;70.88;100599.25;5165045;28;20030;-85
2022/11/20 03:48:20;;;;;;;3.22;2.92;;;;;;;4.94;70.26;100598.41;5182249;28;20585;-85
2022/11/20 03:50:52;;;;;;;2.42;2.22;;;;;;;5.01;69.79;100589.69;5148588;28;20030;-84
2022/11/20 03:53:23;;;;;;;2.15;1.27;;;;;;;4.89;70.56;100585.44;5182815;28;20041;-84
2022/11/20 03:55:53;;;;;;;0.40;0.40;;;;;;;4.94;69.87;100585.41;5162841;28;20022;-85
2022/11/20 03:58:24;;;;;;;0.80;0.80;;;;;;;4.88;69.98;100585.44;5169465;28;20035;-85
2022/11/20 04:00:54;;;;;;;2.97;2.45;;;;;;;4.90;69.72;100588.91;5162712;28;20041;-83
2022/11/20 04:03:25;;;;;;;0.95;0.95;;;;;;;4.90;69.89;100591.50;5146051;28;20065;-85
2022/11/20 04:06:00;;;;;;;0.68;0.68;;;;;;;4.93;69.61;100590.63;5167804;28;20030;-84
2022/11/20 04:08:31;;;;;;;2.10;2.00;;;;;;;4.79;70.27;100588.97;5164232;28;20029;-84
2022/11/20 04:11:12;;;;;;;1.20;1.20;;;;;;;4.84;70.29;100586.31;5148752;28;20042;-86
2022/11/20 04:13:46;;;;;;;1.60;1.50;;;;;;;4.77;69.81;100582.91;5170222;28;20554;-84
2022/11/20 04:16:18;;;;;;;1.83;1.70;;;;;;;4.60;70.57;100588.19;5158580;28;20104;-84
2022/11/20 04:18:56;;;;;;;1.20;1.20;;;;;;;4.74;70.46;100580.31;5165958;28;20034;-85
2022/11/20 04:21:27;;;;;;;0.70;0.70;;;;;;;4.77;69.73;100574.22;5167539;28;20105;-85
2022/11/20 04:23:57;;;;;;;5.45;2.35;;;;;;;4.70;70.11;100576.03;5146191;28;20084;-85
2022/11/20 04:26:30;;;;;;;0.60;0.60;;;;;;;4.69;70.12;100577.75;5146741;28;20129;-85
2022/11/20 04:29:03;;;;;;;1.23;1.17;;;;;;;4.57;70.00;100583.00;5165003;28;20031;-85
2022/11/20 04:31:34;;;;;;;1.63;1.52;;;;;;;4.54;70.40;100580.41;5155950;28;20038;-85
2022/11/20 04:34:06;;;;;;;0.88;0.88;;;;;;;4.46;70.63;100580.47;5165733;28;20022;-85
2022/11/20 04:36:37;;;;;;;0.90;0.90;;;;;;;4.50;69.77;100581.31;5162213;28;20652;-86
2022/11/20 04:39:14;;;;;;;1.08;1.08;;;;;;;4.37;70.95;100576.16;5162335;28;20073;-86
2022/11/20 04:41:45;;;;;;;1.40;1.23;;;;;;;4.38;70.96;100577.88;5162598;28;20507;-85
2022/11/20 04:44:15;;;;;;;2.58;2.08;;;;;;;4.33;70.47;100584.84;5147946;28;20305;-85
2022/11/20 04:46:45;;;;;;;1.63;1.48;;;;;;;4.33;70.30;100577.06;5144302;28;20528;-85
2022/11/20 04:49:16;;;;;;;0.88;0.85;;;;;;;4.30;70.82;100581.41;5165994;28;20034;-84
2022/11/20 04:51:46;;;;;;;1.02;0.95;;;;;;;4.27;70.68;100579.66;5165795;28;20042;-84
2022/11/20 04:54:17;;;;;;;0.60;0.60;;;;;;;4.47;70.32;100581.31;5179617;28;20026;-85
2022/11/20 04:56:48;;;;;;;1.80;1.70;;;;;;;4.33;70.21;100574.47;5164768;28;20077;-85
2022/11/20 04:59:18;;;;;;;0.88;0.88;;;;;;;4.26;71.04;100570.13;5143564;28;20034;-86
2022/11/20 05:01:49;;;;;;;0.60;0.60;;;;;;;4.30;70.76;100582.25;5177511;28;20121;-85
2022/11/20 05:04:19;;;;;;;2.67;2.53;;;;;;;4.44;70.27;100583.91;5147676;28;20056;-85
2022/11/20 05:06:50;;;;;;;0.68;0.68;;;;;;;4.33;70.22;100583.97;5183377;28;20062;-83
2022/11/20 05:09:20;;;;;;;1.02;1.02;;;;;;;4.24;70.71;100579.69;5135797;28;20037;-84
2022/11/20 05:11:51;;;;;;;2.65;2.05;;;;;;;4.20;71.08;100577.94;5165062;28;20412;-84
2022/11/20 05:14:21;;;;;;;2.00;1.90;;;;;;;4.16;71.08;100581.44;5167681;28;20034;-85
2022/11/20 05:16:52;;;;;;;1.08;1.02;;;;;;;4.16;71.01;100594.41;5169269;28;20039;-85
2022/11/20 05:19:22;;;;;;;2.00;1.90;;;;;;;4.21;70.71;100583.16;5155723;28;20025;-84
2022/11/20 05:21:53;;;;;;;1.42;1.42;;;;;;;4.37;70.93;100580.50;5155169;28;20062;-84
2022/11/20 05:24:23;;;;;;;1.23;1.20;;;;;;;4.27;70.40;100582.25;5176160;28;20031;-84
2022/11/20 05:26:54;;;;;;;2.40;1.75;;;;;;;4.22;70.52;100576.22;5193705;28;20038;-85
2022/11/20 05:29:24;;;;;;;0.90;0.90;;;;;;;4.22;70.83;100581.41;5168232;28;20031;-84
2022/11/20 05:31:54;;;;;;;0.60;0.60;;;;;;;4.21;70.71;100585.75;5165237;28;20049;-85
2022/11/20 05:34:25;;;;;;;0.90;0.90;;;;;;;4.32;70.79;100577.03;5132854;28;20084;-85
2022/11/20 05:36:55;;;;;;;0.50;0.50;;;;;;;4.26;70.37;100577.91;5154123;28;20125;-82
2022/11/20 05:39:26;;;;;;;0.88;0.88;;;;;;;4.22;70.91;100571.03;5166101;28;20089;-86
2022/11/20 05:44:45;;;;;;;0.80;0.80;;;;;;;4.21;70.58;100572.78;5148207;28;20034;-85
2022/11/20 05:47:16;;;;;;;0.80;0.80;;;;;;;4.19;70.63;100581.41;5171685;28;20569;-85
2022/11/20 05:49:46;;;;;;;1.02;1.02;;;;;;;4.19;70.41;100571.03;5168214;28;20052;-83
2022/11/20 05:52:17;;;;;;;1.13;1.13;;;;;;;4.17;71.13;100565.00;5150950;28;20160;-85
2022/11/20 05:54:47;;;;;;;2.55;2.42;;;;;;;4.20;71.21;100564.97;5155533;28;20217;-85
2022/11/20 05:57:18;;;;;;;1.55;1.45;;;;;;;4.17;71.38;100563.25;5183062;28;20132;-85
2022/11/20 05:59:48;;;;;;;2.28;1.70;;;;;;;4.11;71.97;100563.28;5154342;28;20034;-85
2022/11/20 06:02:19;;;;;;;2.78;1.30;;;;;;;4.20;71.27;100563.25;5151285;28;20049;-85
2022/11/20 06:04:49;;;;;;;1.05;1.05;;;;;;;4.21;70.93;100553.69;5167408;28;20558;-84
2022/11/20 06:07:20;;;;;;;1.85;1.75;;;;;;;4.22;71.15;100556.28;5151592;28;20068;-85
2022/11/20 06:09:50;;;;;;;2.05;1.95;;;;;;;4.22;71.17;100560.63;5169105;28;20066;-85
2022/11/20 06:12:20;;;;;;;0.65;0.65;;;;;;;4.19;71.07;100550.25;5150522;28;20045;-85
2022/11/20 06:14:51;;;;;;;1.33;1.27;;;;;;;4.21;71.35;100551.09;5181637;28;20045;-85
2022/11/20 06:17:21;;;;;;;1.65;1.55;;;;;;;4.27;71.52;100552.81;5169399;28;20064;-83
2022/11/20 06:19:52;;;;;;;0.55;0.55;;;;;;;4.30;70.71;100553.69;5166299;28;20082;-85
2022/11/20 06:22:22;;;;;;;2.30;2.20;;;;;;;4.34;70.73;100544.13;5164884;28;20117;-86
2022/11/20 06:24:53;;;;;;;2.58;2.35;;;;;;;4.37;70.74;100554.53;5167534;28;20023;-85
2022/11/20 06:27:23;;;;;;;1.30;1.30;;;;;;;4.24;71.13;100554.56;5182478;28;20255;-83
2022/11/20 06:29:54;;;;;;;1.98;1.83;;;;;;;4.36;70.70;100561.44;5185153;28;20030;-85
2022/11/20 06:32:24;;;;;;;1.50;1.42;;;;;;;4.37;70.73;100557.13;5151135;28;20744;-85
2022/11/20 06:34:55;;;;;;;1.30;1.30;;;;;;;4.28;71.11;100560.59;5134328;28;20026;-85
2022/11/20 06:37:25;;;;;;;0.88;0.88;;;;;;;4.24;71.47;100569.28;5129422;28;20033;-85
2022/11/20 06:39:55;;;;;;;1.35;1.35;;;;;;;4.25;71.00;100571.03;5146809;28;20026;-85
2022/11/20 06:42:26;;;;;;;1.95;1.60;;;;;;;4.29;70.90;100577.06;5135899;28;20686;-85
2022/11/20 06:44:56;;;;;;;2.05;1.95;;;;;;;4.23;71.66;100583.13;5148037;28;20077;-85
2022/11/20 06:47:27;;;;;;;1.25;1.17;;;;;;;4.23;71.17;100590.94;5160213;28;20049;-85
2022/11/20 06:49:57;;;;;;;2.25;2.03;;;;;;;4.19;71.87;100589.19;5165290;28;20038;-85
2022/11/20 06:52:28;;;;;;;1.10;1.10;;;;;;;4.23;72.24;100585.75;5147724;28;20467;-83
2022/11/20 06:54:58;;;;;;;1.98;1.88;;;;;;;4.25;71.09;100594.41;5178632;28;20034;-84
2022/11/20 06:57:29;;;;;;;0.95;0.95;;;;;;;4.34;71.60;100594.34;5146269;28;20038;-84
2022/11/20 06:59:59;;;;;;;1.95;1.85;;;;;;;4.32;71.27;100598.69;5160265;28;20085;-84
2022/11/20 07:02:29;;;;;;;0.50;0.50;;;;;;;4.41;71.89;100588.28;5145104;28;20042;-84
2022/11/20 07:05:00;;;;;;;1.25;1.25;;;;;;;4.38;71.03;100590.88;5131522;28;20080;-84
2022/11/20 07:07:30;;;;;;;2.25;1.75;;;;;;;4.39;70.84;100594.31;5158348;28;20050;-84
2022/11/20 07:10:01;;;;;;;0.88;0.88;;;;;;;4.27;71.19;100605.63;5145389;28;20030;-85
2022/11/20 07:12:31;;;;;;;0.75;0.75;;;;;;;4.29;71.36;100601.28;5174790;28;20110;-85
2022/11/20 07:15:02;;;;;;;2.38;2.05;;;;;;;4.43;71.38;100608.16;5147463;28;20062;-85
2022/11/20 07:17:33;;;;;;;1.70;1.60;;;;;;;4.39;71.25;100609.91;5158334;28;20050;-85
2022/11/20 07:20:03;;;;;;;0.73;0.73;;;;;;;4.32;71.97;100598.69;5159632;28;20605;-84
2022/11/20 07:22:34;;;;;;;1.00;1.00;;;;;;;4.45;71.37;100609.03;5150973;28;20559;-84
2022/11/20 07:25:05;;;;;;;2.92;1.73;;;;;;;4.38;70.44;100616.00;5147700;28;20211;-85
2022/11/20 07:27:36;;;;;;;1.50;1.30;;;;;;;4.40;71.07;100611.66;5147046;28;20366;-84
2022/11/20 07:30:07;;;;;;;0.70;0.70;;;;;;;4.39;70.32;100609.91;5150243;28;20136;-85
2022/11/20 07:32:37;;;;;;;1.77;1.65;;;;;;;4.32;71.34;100598.69;5153281;28;20053;-85
2022/11/20 07:35:08;;;;;;;1.00;1.00;;;;;;;4.23;70.82;100603.91;5173636;28;20240;-85
2022/11/20 07:37:38;;;;;;;1.77;1.67;;;;;;;4.27;71.02;100594.38;5181096;28;20038;-85
2022/11/20 07:40:09;;;;;;;1.92;1.83;;;;;;;4.16;70.43;100600.47;5179225;28;20045;-85
2022/11/20 07:42:48;;;;;;;0.93;0.93;;;;;;;4.19;70.90;100597.88;5158113;28;20498;-84
2022/11/20 07:45:20;;;;;;;1.75;1.65;;;;;;;4.17;70.55;100601.34;5154681;28;20053;-84
2022/11/20 07:47:51;;;;;;;2.08;1.98;;;;;;;4.15;71.12;100605.66;5152468;28;20038;-85
2022/11/20 07:50:21;;;;;;;1.45;1.38;;;;;;;4.13;71.05;100597.00;5161473;28;20092;-87
2022/11/20 07:52:52;;;;;;;3.58;2.65;;;;;;;4.13;71.26;100591.81;5131292;28;20118;-85
2022/11/20 07:55:22;;;;;;;1.77;1.67;;;;;;;4.10;71.15;100592.69;5159344;28;20615;-85
2022/11/20 07:57:56;;;;;;;0.68;0.63;;;;;;;4.07;71.29;100597.88;5157157;28;20046;-85
2022/11/20 08:00:27;;;;;;;2.70;2.50;;;;;;;4.04;71.06;100588.38;5159410;28;20030;-84
2022/11/20 08:02:57;;;;;;;0.95;0.95;;;;;;;4.04;71.24;100590.13;5174111;28;20077;-85
2022/11/20 08:05:28;;;;;;;4.43;3.03;;;;;;;4.06;71.69;100596.16;5152903;28;20053;-85
2022/11/20 08:07:59;;;;;;;2.03;1.92;;;;;;;4.12;71.17;100590.09;5142509;28;20529;-86
2022/11/20 08:10:30;;;;;;;1.70;1.60;;;;;;;4.10;71.46;100588.34;5144555;28;20033;-85
2022/11/20 08:15:53;;;;;;;1.23;1.13;;;;;;;4.10;71.36;100583.16;5183398;28;20524;-86
2022/11/20 08:18:24;;;;;;;5.45;4.00;;;;;;;4.17;70.83;100596.16;5159014;28;20053;-85
2022/11/20 08:20:55;;;;;;;0.98;0.98;;;;;;;4.14;71.46;100599.59;5156672;28;20030;-85
2022/11/20 08:23:25;;;;;;;1.35;1.25;;;;;;;4.14;71.73;100591.81;5163289;28;20375;-85
2022/11/20 08:25:56;;;;;;;1.63;1.52;;;;;;;4.17;71.33;100589.22;5146177;28;20014;-86
2022/11/20 08:28:26;;;;;;;1.17;0.98;;;;;;;4.19;71.54;100591.78;5127672;28;20060;-87
2022/11/20 08:31:00;;;;;;;1.75;1.65;;;;;;;4.19;71.30;100584.88;5140911;28;20119;-85
2022/11/20 08:33:32;;;;;;;2.95;1.98;;;;;;;4.18;71.45;100579.66;5159260;28;20038;-85
2022/11/20 08:36:03;;;;;;;1.92;1.83;;;;;;;4.15;71.25;100585.75;5135822;28;20026;-87
2022/11/20 08:38:33;;;;;;;2.17;1.88;;;;;;;4.16;71.90;100589.22;5154222;28;20033;-84
2022/11/20 08:41:23;;;;;;;7.22;1.25;;;;;;;4.15;72.07;100587.50;5137452;28;20064;-84
2022/11/20 08:43:56;;;;;;;1.52;1.42;;;;;;;4.20;71.91;100583.13;5148486;28;20030;-85
2022/11/20 08:46:33;;;;;;;0.70;0.70;;;;;;;4.19;71.87;100586.59;5128616;28;20030;-86
2022/11/20 08:49:04;;;;;;;1.98;1.88;;;;;;;4.21;72.67;100595.25;5160378;28;20307;-84
2022/11/20 08:51:35;;;;;;;1.35;1.35;;;;;;;4.35;71.96;100590.88;5160960;28;20149;-84
2022/11/20 08:54:06;;;;;;;4.53;3.42;;;;;;;4.30;72.53;100584.84;5144716;28;20038;-83
2022/11/20 08:56:37;;;;;;;1.88;1.77;;;;;;;4.31;72.35;100581.38;5158842;28;20535;-84
2022/11/20 08:59:07;;;;;;;1.88;1.77;;;;;;;4.30;72.59;100584.84;5143312;28;20107;-84
2022/11/20 09:01:38;;;;;;;2.13;1.95;;;;;;;4.43;72.17;100584.78;5157873;28;20042;-83
2022/11/20 09:04:09;;;;;;;1.15;1.15;;;;;;;4.46;72.50;100587.38;5143145;28;20359;-83
2022/11/20 09:06:40;;;;;;;2.40;1.73;;;;;;;4.48;72.92;100580.44;5140339;28;20042;-83
2022/11/20 09:09:10;;;;;;;3.03;2.38;;;;;;;4.52;73.04;100589.94;5141706;28;20038;-83
2022/11/20 09:11:40;;;;;;;1.15;1.15;;;;;;;4.57;72.13;100577.81;5171213;28;20042;-82
2022/11/20 09:14:11;;;;;;;1.75;1.70;;;;;;;4.59;73.20;100575.19;5158641;28;20483;-84
2022/11/20 09:16:41;;;;;;;2.25;2.15;;;;;;;4.57;72.48;100568.28;5156190;28;20117;-83
2022/11/20 09:19:12;;;;;;;5.55;2.47;;;;;;;4.60;73.10;100566.53;5123866;28;20058;-84
2022/11/20 09:21:42;;;;;;;3.45;3.15;;;;;;;4.60;72.83;100569.13;5153490;28;20049;-84
2022/11/20 09:24:13;;;;;;;2.55;2.35;;;;;;;4.59;72.82;100567.41;5159915;28;20038;-83
2022/11/20 09:26:43;;;;;;;3.85;3.35;;;;;;;4.62;73.47;100563.06;5140958;28;20371;-84
2022/11/20 09:29:14;;;;;;;2.70;2.60;;;;;;;4.63;73.62;100566.53;5141026;28;20119;-84
2022/11/20 09:31:44;;;;;;;5.00;3.63;;;;;;;4.78;73.25;100565.56;5123052;28;20558;-85
2022/11/20 09:34:15;;;;;;;2.92;2.72;;;;;;;4.74;73.70;100567.31;5161044;28;20026;-84
2022/11/20 09:36:46;;;;;;;1.75;1.67;;;;;;;4.86;73.34;100563.78;5148807;28;20121;-82
2022/11/20 09:39:16;;;;;;;2.38;2.05;;;;;;;4.77;74.90;100558.63;5165539;28;20162;-83
2022/11/20 09:42:17;;;;;;;3.28;3.00;;;;;;;4.81;73.87;100561.22;5143454;28;20424;-83
2022/11/20 09:44:56;;;;;;;4.95;3.33;;;;;;;4.85;74.21;100564.66;5162236;28;20030;-82
2022/11/20 09:47:36;;;;;;;1.75;1.65;;;;;;;4.87;73.51;100557.72;5136479;28;20052;-83
2022/11/20 09:50:35;;;;;;;3.10;2.15;;;;;;;4.91;73.80;100561.16;5141359;28;20076;-83
2022/11/20 09:53:24;;;;;;;1.30;1.27;;;;;;;5.06;73.89;100568.00;5140922;28;20037;-83
2022/11/20 09:55:56;;;;;;;1.50;1.40;;;;;;;4.93;74.60;100570.66;5189853;28;20035;-83
2022/11/20 09:58:48;;;;;;;6.55;3.88;;;;;;;4.94;73.85;100562.00;5202507;28;20037;-83
2022/11/20 10:01:23;;;;;;;1.60;1.55;;;;;;;4.94;74.41;100564.59;5162944;28;20051;-83
2022/11/20 10:04:06;;;;;;;1.77;1.73;;;;;;;4.95;74.42;100561.13;5187957;28;20029;-83
2022/11/20 10:06:43;;;;;;;2.40;2.28;;;;;;;4.99;74.11;100560.25;5160028;28;20683;-83
2022/11/20 10:09:22;;;;;;;3.70;3.42;;;;;;;5.06;73.93;100549.81;5167608;28;20037;-83
2022/11/20 10:12:01;;;;;;;3.20;2.17;;;;;;;5.07;73.63;100556.72;5161669;28;20046;-84
2022/11/20 10:14:44;;;;;;;2.20;2.08;;;;;;;5.06;74.68;100547.19;5166924;28;20066;-83
2022/11/20 10:17:46;;;;;;;3.00;2.17;;;;;;;5.18;74.62;100544.50;5148397;28;20222;-84
2022/11/20 10:20:25;;;;;;;1.45;1.42;;;;;;;5.18;73.67;100526.28;5163482;28;20425;-83
2022/11/20 10:23:24;;;;;;;1.30;1.30;;;;;;;5.19;73.63;100522.81;5158436;28;20099;-83
2022/11/20 10:26:03;;;;;;;2.63;2.42;;;;;;;5.24;74.03;100512.38;5131083;28;20054;-83
2022/11/20 10:29:00;;;;;;;2.13;2.03;;;;;;;5.29;73.93;100511.47;5157562;28;20026;-83
2022/11/20 10:31:38;;;;;;;4.85;4.45;;;;;;;5.29;74.11;100515.81;5158915;28;20121;-84
2022/11/20 10:34:23;;;;;;;0.90;0.90;;;;;;;5.28;74.98;100503.69;5164862;28;20026;-83
2022/11/20 10:37:09;;;;;;;1.50;1.42;;;;;;;5.32;74.07;100506.25;5131962;28;20046;-83
2022/11/20 10:40:05;;;;;;;1.27;1.27;;;;;;;5.42;74.28;100498.34;5119521;28;20609;-83
2022/11/20 10:42:43;;;;;;;1.20;1.17;;;;;;;5.40;75.02;100497.50;5157837;28;20063;-83
2022/11/20 10:45:19;;;;;;;1.95;1.77;;;;;;;5.44;74.22;100488.78;5130365;28;20412;-83
2022/11/20 10:47:52;;;;;;;1.17;1.15;;;;;;;5.56;73.39;100480.00;5127830;28;20047;-83
2022/11/20 10:50:23;;;;;;;1.48;1.40;;;;;;;5.53;74.07;100475.69;5138608;28;20031;-83
2022/11/20 10:52:53;;;;;;;1.55;1.45;;;;;;;5.46;74.51;100472.25;5120796;28;20034;-83
2022/11/20 10:55:30;;;;;;;0.88;0.88;;;;;;;5.50;74.24;100468.78;5129543;28;20253;-82
2022/11/20 10:58:07;;;;;;;1.08;1.08;;;;;;;5.61;73.98;100460.84;5111319;28;20047;-83
2022/11/20 11:00:38;;;;;;;3.88;3.40;;;;;;;5.61;74.09;100458.25;5093886;28;20049;-83
2022/11/20 11:03:35;;;;;;;2.72;2.53;;;;;;;5.65;74.32;100462.56;5127790;28;20042;-83
2022/11/20 11:06:19;;;;;;;1.23;1.23;;;;;;;5.66;73.54;100461.66;5145908;28;20533;-84
2022/11/20 11:08:51;;;;;;;1.85;1.75;;;;;;;5.65;74.06;100462.56;5133502;28;20129;-84
2022/11/20 11:11:33;;;;;;;2.37;2.23;;;;;;;5.65;74.07;100457.34;5145406;28;20364;-83
2022/11/20 11:14:15;;;;;;;8.68;3.60;;;;;;;5.71;73.51;100455.53;5165128;28;20029;-83
2022/11/20 11:16:54;;;;;;;1.90;1.80;;;;;;;5.70;74.06;100451.22;5120202;28;20043;-83
2022/11/20 11:19:24;;;;;;;0.75;0.75;;;;;;;5.69;73.46;100452.97;5143253;28;20117;-83
2022/11/20 11:21:56;;;;;;;2.08;1.95;;;;;;;5.66;74.23;100443.44;5113576;28;20153;-83
2022/11/20 11:24:29;;;;;;;1.10;1.10;;;;;;;5.63;74.04;100432.19;5143133;28;20521;-84
2022/11/20 11:27:11;;;;;;;2.47;1.83;;;;;;;5.68;73.57;100436.47;5162842;28;20061;-83
2022/11/20 11:29:41;;;;;;;2.78;2.05;;;;;;;5.73;73.72;100426.00;5110790;28;20071;-83
2022/11/20 11:32:14;;;;;;;2.10;2.00;;;;;;;5.73;73.64;100417.34;5145880;28;20117;-84
2022/11/20 11:34:45;;;;;;;2.60;2.28;;;;;;;5.75;74.22;100415.56;5160797;28;20116;-84
2022/11/20 11:37:24;;;;;;;1.08;1.08;;;;;;;5.64;74.15;100406.16;5132911;28;20093;-83
2022/11/20 11:39:54;;;;;;;1.45;1.35;;;;;;;5.72;74.32;100400.00;5166759;28;20077;-87
2022/11/20 11:42:25;;;;;;;6.43;2.53;;;;;;;5.85;73.46;100401.56;5145872;28;20090;-84
2022/11/20 11:45:07;;;;;;;1.80;1.73;;;;;;;5.77;73.95;100399.06;5152752;28;20046;-84
2022/11/20 11:47:45;;;;;;;4.38;3.65;;;;;;;5.79;73.68;100392.06;5146747;28;20042;-82
2022/11/20 11:50:25;;;;;;;0.90;0.90;;;;;;;5.79;73.72;100391.22;5127684;28;21439;-85
2022/11/20 11:53:06;;;;;;;0.77;0.77;;;;;;;5.75;74.08;100379.13;5140619;28;20034;-82
2022/11/20 11:55:46;;;;;;;1.92;1.80;;;;;;;5.75;74.26;100376.50;5156856;28;20038;-83
2022/11/20 11:58:39;;;;;;;3.92;1.17;;;;;;;5.77;74.07;100375.63;5154760;28;20072;-84
2022/11/20 12:01:36;;;;;;;10.18;4.97;;;;;;;5.83;73.81;100377.28;5163432;28;20259;-83
2022/11/20 12:04:41;;;;;;;3.83;2.90;;;;;;;5.83;74.00;100366.84;5134179;28;20043;-83
2022/11/20 12:07:42;;;;;;;2.55;2.15;;;;;;;5.85;74.36;100362.50;5152234;28;20041;-83
2022/11/20 12:10:20;;;;;;;1.17;1.13;;;;;;;5.76;74.28;100358.28;5126862;28;20533;-83
2022/11/20 12:13:01;;;;;;;2.47;1.23;;;;;;;5.86;74.14;100356.41;5151936;28;20527;-84